Dobbins Air Reserve Base Airport
KMGE : now visible

Airfield :











YOU CAN JOIN US ON...

 
LOGIN :

Register | Disclaimer

   EN    FR    IT 

 









Legend :    VFR   Marginal VFR   IFR   Intensive IFR   Very Intensive IFR
Visi :
Ceiling :
>= 8 km
>= 3000ft
5 to 8 km
1000 to 3000 ft
1500m to 5 km
500 to 1000 ft
800 to 1500m
200 to 500 ft
< 800m
< 200 ft
Symbols :   Thunderstorms  Fog  Heavy snow  Heavy precipitations  Wind > 20 kt







- Airport Elevation : 1068 ft


KMGE - Dobbins Air Reserve Base

CURRENT METAR :
  • 210526Z AUTO 09006KT 9SM -RA OVC006 05/05 A3009 RMK AO2 CIG 004V006 CIG 005 RWY29 SLPNO $

EXPIRED METARs :
  • 210456Z AUTO 09003KT 10SM -RA OVC004 05/05 A3009 RMK AO2 RAB0356 TSB11E26 SLPNO P0005 T00540050 400600033 $
  • 210441Z AUTO 07006KT 7SM -RA OVC004 05/05 A3009 RMK AO2 LTG DSNT SE-S RAB0356 TSB11E26 PRESRR SLPNO $
  • 210426Z AUTO 09009KT 10SM -RA OVC003 05/05 A3007 RMK AO2 LTG DSNT SE RAB0356 TSB11E26 PRESFR SLPNO $
  • 210411Z AUTO 09007KT 10SM -TSRA BKN003 OVC007 05/05 A3009 RMK AO2 RAB0356 TSB11 SLPNO $
  • 210358Z AUTO 08005KT 10SM -RA BKN003 OVC007 06/05 A3009 RMK AO2 RAB56 CIG 003V005 SLPNO $
  • 210357Z 09005KT 7SM -RA BKN003 OVC007 06/05 A3009 RMK AO2A $
  • 210336Z 08005KT 7SM -RA OVC004CB 06/05 A3010 RMK AO2A CB 10NE MOV NE $
  • 210256Z 03004KT 2SM -TSRA BR OVC002CB 06/05 A3009 RMK AO2A OCNL LTGIC N TS 7N MOV NE SLP196 P0005 60018 T00560052 52041 $
  • 210244Z 09005KT 2SM -TSRA BR OVC002CB 06/05 A3007 RMK AO2A OCNL LTGICCC W TS 6W MOV NE $

TAF AMD TAF KMGE
Valid from the 21 at 03:00 until the 22 at 04:00 UTC


210315Z 2103/2204 10010KT 4800 -RA BR VCTS OVC002CB QNH2994INS
TEMPO 2103/2104 3200 TSRA BR BKN004CB OVC010
BECMG 2111/2112 24010KT 3200 -RA BR OVC005 QNH3000INS
BECMG 2116/2117 29010KT 4800 -RA BR BKN007 OVC015 QNH3003INS
BECMG 2122/2123 30010G15KT 6000 BR VCSH SCT007 OVC015 QNH3010INS TX12/2120Z TN04/2104Z
KZTL FIR / North America



MET'MAP, your aeronautical weather chart ! - Copyright ORBIFLY December 2007 - Disclaimer

ORBIFLY MET'MAP TEAM :

Programming & Development : Alexandra Zaïnal
Concept & Development : Baudouin d'Aumeries
Co-Development & Prog : Marc-Olivier Méhu
Technical & hardware support : Manuel Goepfert

Contact : metmap@orbifly.com




SOURCES & CREDITS :

   NOAA       Earth
Advisory